NCAR-RAP Real-Time Weather Data

Output produced by METARs form (23 January 2018  15:39 UTC)
found at http://weather.rap.ucar.edu/surface/
 
RJGG 231500Z 27021KT 9999 FEW025 BKN/// 03/M06 Q1013 NOSIG
RJGG 231430Z 27024KT 9999 FEW025 BKN/// 03/M06 Q1013 NOSIG
RJGG 231400Z 27021KT 9999 FEW025 SCT/// 03/M06 Q1013 NOSIG
RJGG 231330Z 28022KT 9999 FEW025 SCT/// 03/M06 Q1013 NOSIG
RJGG 231300Z 28017KT 9999 FEW025 03/M07 Q1013 NOSIG
RJGG 231230Z 29016KT 9999 FEW025 04/M05 Q1013 NOSIG
RJGG 231200Z 29016KT 9999 FEW025 04/M05 Q1013 NOSIG
RJGG 231130Z 31018KT 9999 FEW025 04/M04 Q1013 NOSIG
RJGG 231100Z 31019KT 9999 FEW025 04/M04 Q1012 NOSIG
RJGG 231030Z 31022KT 9999 FEW025 04/M03 Q1012 NOSIG
RJGG 231000Z 32022KT 9999 FEW020 05/M03 Q1012 NOSIG
RJGG 230930Z 33022KT 9999 FEW020 05/M01 Q1012 NOSIG
RJGG 230900Z 34017KT 9999 FEW020 SCT060 05/M00 Q1011 NOSIG
RJGG 230830Z 32019KT 9999 -SHRA FEW015 SCT030 BKN060 06/M00 Q1011 NOSIG
RJGG 230800Z 32024KT 9999 -SHRA FEW010 BKN020 BKN040 06/01 Q1010 NOSIG
RJGG 230730Z 27018G29KT 240V320 9999 -SHRA FEW015 SCT030 BKN060 07/00 Q1010 TEMPO 28030G40KT
RJGG 230700Z 29017KT 9999 FEW015 SCT080 08/01 Q1010 TEMPO 28030G40KT
RJGG 230630Z 29024KT 9999 FEW015 SCT100 07/01 Q1009 TEMPO 28035G45KT
RJGG 230600Z 30030KT 9999 FEW015 BKN060 08/01 Q1009 TEMPO 28035G45KT
RJGG 230530Z 29031KT 9999 -SHRA FEW015 SCT035 BKN080 09/01 Q1008 TEMPO 28035G45KT
RJGG 230500Z 30024KT 9999 FEW015 SCT060 10/01 Q1008 TEMPO 28035G45KT
RJGG 230430Z 28028KT 9999 FEW015 10/01 Q1008 TEMPO 28035G45KT
RJGG 230400Z 27025KT 9999 FEW015 10/01 Q1008 TEMPO 28035G45KT
RJGG 230330Z 29025KT 9999 FEW015 10/02 Q1008 TEMPO 28035G45KT
RJGG 230300Z 28027KT 9999 FEW015 10/03 Q1008 TEMPO 28035G45KT
RJGG 230230Z 29023KT 9999 FEW015 09/03 Q1009 TEMPO 28035G45KT
RJGG 230200Z 28024KT 9999 FEW015 09/04 Q1009 TEMPO 28035G45KT
RJGG 230130Z 28026KT 9999 FEW015 09/04 Q1009 TEMPO 28035G45KT
RJGG 230100Z 27022KT 9999 FEW015 08/04 Q1009 NOSIG
RJGG 230030Z 28009KT 9999 FEW015 08/04 Q1010 BECMG 28024KT
RJGG 230000Z 28007KT 9999 FEW015 07/03 Q1010 BECMG 28024KT
RJGG 222330Z 28008KT 9999 FEW015 07/03 Q1010 BECMG 28020KT
RJGG 222300Z 28010KT 9999 FEW010 06/04 Q1010 BECMG 28020KT
RJGG 222230Z 28013KT 9999 FEW010 BKN050 06/04 Q1010 NOSIG
RJGG 222200Z 29009KT 9999 FEW010 06/03 Q1010 BECMG 28020KT
RJGG 222130Z 29009KT 9999 FEW010 SCT035 06/03 Q1010 BECMG 28020KT
RJGG 222100Z 28009KT 9999 FEW010 SCT018 BKN030 05/03 Q1010 NOSIG
RJGG 222030Z 27004KT 220V310 9999 FEW010 BKN018 06/03 Q1010 BECMG 28015KT
RJGG 222000Z 30007KT 9999 FEW015 BKN020 05/02 Q1010 NOSIG
RJGG 221930Z 28014KT 9999 FEW015 SCT025 06/02 Q1009 NOSIG
RJGG 221900Z 30017KT 9999 FEW020 06/02 Q1009 NOSIG
RJGG 221830Z 28023KT 9999 FEW015 05/02 Q1010 NOSIG
RJGG 221800Z 27024KT 9999 FEW015 06/03 Q1010 NOSIG
RJGG 221730Z 27021KT 9999 FEW015 05/02 Q1010 NOSIG
RJGG 221700Z 27017KT 9999 FEW015 05/02 Q1010 NOSIG
RJGG 221630Z 27019KT 9999 FEW015 05/02 Q1009 NOSIG
RJGG 221600Z 27015KT 9999 FEW015 05/02 Q1009 NOSIG
RJGG 221530Z 27015KT 9999 FEW015 05/03 Q1009 NOSIG
RJGG 221500Z 28015KT 9999 VCSH FEW010 SCT015 05/03 Q1009 NOSIG
RJGG 221430Z 28010KT 9999 FEW010 SCT015 05/03 Q1009 NOSIG
RJGG 221400Z 25011KT 9999 FEW010 SCT015 05/03 Q1009 BECMG 28010KT
RJGG 221330Z 27010KT 9999 FEW010 05/03 Q1009 NOSIG
RJGG 221300Z 32011KT 9999 FEW007 SCT050 05/03 Q1009 NOSIG
RJGG 221230Z 33009KT 9999 -RA FEW007 SCT025 BKN040 05/03 Q1009 NOSIG
RJGG 221200Z 33012KT 9999 -RA FEW007 BKN025 04/03 Q1009 TEMPO FEW005 BKN008
RJGG 221130Z 30012KT 9999 -RA FEW005 BKN008 BKN020 05/04 Q1010 NOSIG
RJGG 221100Z 29012KT 9999 -RA FEW005 BKN007 05/04 Q1010 NOSIG
RJGG 221030Z 34010KT 9999 -RA FEW005 BKN007 BKN030 05/04 Q1010 NOSIG
RJGG 221000Z 35007KT 8000 -RA FEW005 BKN007 BKN030 04/04 Q1010 NOSIG
RJGG 220930Z 35007KT 6000 -RA BR FEW005 BKN007 BKN030 04/03 Q1010 TEMPO 4000 RA BR
RJGG 220900Z 35008KT 5000 -RA BR FEW005 BKN008 BKN030 04/03 Q1010 TEMPO 4000 RA BR
RJGG 220830Z 34012KT 3500 -RA BR FEW004 BKN007 BKN025 04/04 Q1010 NOSIG
RJGG 220800Z 36009KT 4000 -RA BR FEW005 BKN008 BKN025 04/03 Q1009 NOSIG
RJGG 220730Z 04009KT 5000 -RA BR FEW006 BKN011 BKN025 04/03 Q1009 TEMPO 4000 RA BR FEW005 BKN008
RJGG 220700Z 03010KT 4000 RA BR FEW007 BKN012 BKN025 04/03 Q1009 TEMPO FEW005 BKN008
RJGG 220630Z 03009KT 5000 RA BR FEW010 BKN013 BKN025 05/03 Q1009 TEMPO 4000 RA BR
RJGG 220600Z 01011KT 6000 RA BKN012 BKN025 05/03 Q1010 TEMPO 4000 RA BR
RJGG 220530Z 36010KT 6000 RA FEW010 BKN013 BKN020 05/04 Q1010 TEMPO 4000 RA BR
RJGG 220500Z 36015KT 5000 RA BR SCT013 BKN030 05/04 Q1010 TEMPO 4000 RA BR
RJGG 220430Z 35013KT 8000 -RA FEW015 SCT025 BKN035 05/02 Q1011 TEMPO 4000 -RA BR
RJGG 220400Z 35011KT 6000 -RA SCT015 BKN035 05/01 Q1012 TEMPO 4000 -RA BR
RJGG 220330Z 35014KT 9999 -RA FEW025 BKN040 06/M01 Q1012 NOSIG
RJGG 220300Z 35014KT 9999 FEW025 BKN035 BKN080 06/M01 Q1013 NOSIG
RJGG 220230Z 35015KT 9999 FEW025 BKN035 BKN080 06/M01 Q1014 NOSIG
RJGG 220200Z 35016KT 9999 FEW025 SCT030 BKN080 06/M01 Q1014 NOSIG
RJGG 220130Z 34013KT 9999 FEW025 SCT035 BKN090 05/M00 Q1015 NOSIG
RJGG 220100Z 35011KT 9999 FEW025 SCT030 BKN100 05/M01 Q1016 NOSIG
RJGG 220030Z 35010KT 9999 FEW025 BKN110 06/00 Q1017 NOSIG
RJGG 220000Z 01006KT 340V040 9999 FEW025 BKN100 05/M01 Q1017 NOSIG
RJGG 212330Z 03009KT 9999 FEW025 BKN140 05/M01 Q1016 NOSIG
RJGG 212300Z 02010KT 9999 FEW025 BKN120 04/00 Q1017 NOSIG
RJGG 212230Z 01011KT 9999 FEW025 BKN140 05/01 Q1018 NOSIG
RJGG 212200Z 36009KT 9999 FEW025 BKN150 04/01 Q1018 NOSIG
RJGG 212130Z 02011KT 9999 FEW025 BKN150 04/00 Q1018 NOSIG
RJGG 212100Z 05008KT 9999 FEW025 BKN160 BKN/// 04/00 Q1018 NOSIG
RJGG 212030Z 03008KT 9999 FEW025 SCT170 BKN/// 04/01 Q1018 NOSIG
RJGG 212000Z 05005KT 9999 FEW025 SCT170 BKN/// 04/01 Q1018 NOSIG
RJGG 211930Z 34009KT 9999 FEW025 BKN/// 05/02 Q1018 NOSIG
RJGG 211900Z 31010KT 9999 FEW025 BKN/// 06/02 Q1018 NOSIG
RJGG 211830Z 28009KT 9999 FEW025 BKN/// 06/02 Q1018 NOSIG
RJGG 211800Z 28010KT 9999 FEW025 SCT/// 06/02 Q1018 NOSIG
RJGG 211730Z 28008KT 9999 FEW025 BKN/// 06/03 Q1018 NOSIG
RJGG 211700Z 34008KT 9999 FEW025 SCT/// 05/M00 Q1018 NOSIG
RJGG 211630Z 33010KT 9999 FEW025 06/01 Q1018 NOSIG
RJGG 211600Z 34010KT 9999 FEW025 SCT/// 06/01 Q1018 NOSIG
RJGG 211530Z 33011KT 9999 FEW025 SCT/// 07/00 Q1018 NOSIG
RJGG 211500Z 34010KT 9999 FEW025 BKN/// 06/M00 Q1018 NOSIG
RJGG 211430Z 32011KT 9999 FEW025 BKN/// 07/02 Q1018 NOSIG
RJGG 211400Z 30013KT 9999 FEW025 BKN/// 08/02 Q1019 NOSIG
RJGG 211330Z 31015KT 9999 FEW025 BKN/// 08/02 Q1019 NOSIG
RJGG 211300Z 32015KT 9999 FEW025 BKN/// 08/02 Q1019 NOSIG
RJGG 211230Z 33014KT 9999 FEW025 BKN/// 08/02 Q1019 NOSIG
RJGG 211200Z 31016KT 9999 FEW025 BKN/// 08/02 Q1019 NOSIG
RJGG 211130Z 32015KT 9999 FEW025 BKN/// 08/03 Q1019 NOSIG
RJGG 211100Z 33015KT 9999 FEW025 BKN/// 08/01 Q1019 NOSIG
RJGG 211030Z 33018KT 9999 FEW025 SCT/// 08/02 Q1019 NOSIG
RJGG 211000Z 32014KT 9999 FEW025 SCT/// 08/03 Q1019 NOSIG
RJGG 210930Z 32019KT 9999 FEW025 SCT/// 09/04 Q1019 NOSIG
RJGG 210900Z 32016KT 9999 FEW025 SCT/// 09/04 Q1019 NOSIG
RJGG 210830Z 33017KT 9999 FEW025 SCT040 09/04 Q1018 NOSIG
RJGG 210800Z 31020KT 9999 FEW025 SCT/// 09/04 Q1018 NOSIG
RJGG 210730Z 30025KT 9999 FEW025 09/04 Q1017 NOSIG
RJGG 210700Z 31016KT 9999 SCT050 10/03 Q1017 NOSIG
RJGG 210630Z 30012KT 9999 FEW050 10/02 Q1017 BECMG 32022KT
RJGG 210600Z 30015KT 9999 FEW050 11/03 Q1017 NOSIG
RJGG 210530Z 30018KT 9999 FEW050 11/03 Q1016 NOSIG
RJGG 210500Z 31016KT 9999 FEW050 11/02 Q1017 NOSIG
RJGG 210430Z 31012KT 9999 FEW050 11/02 Q1017 BECMG 32022KT
RJGG 210400Z 27005KT 9999 FEW050 11/01 Q1017 BECMG 32016KT